Terminal Aerodrome Forecast
Issued by NWS Greer, SC

Home | Current Version | Previous Version | Text Only | Print | Product List | Glossary On
Versions: 1 2 3 4 5 6 7 8 9 10 11 12 13 14 15 16 17 18 19 20 21 22 23 24
000
FTUS42 KGSP 032327
TAFCLT
TAF
KCLT 032327Z 0400/0424 07003KT P6SM OVC150
     FM040800 08003KT P6SM VCSH BKN050 OVC100 PROB30 0410/0415 4SM
      -RA BR OVC035
     FM041500 08004KT 3SM -RA BR OVC025
     FM042100 07005KT 2SM -RA BR OVC010=

USA.gov is the U.S. government's official web portal to all federal, state and local government web resources and services.